Time,TemperatureF,DewpointF,PressureIn,WindDirection,WindDirectionDegrees,WindSpeedMPH,WindSpeedGustMPH,Humidity,HourlyPrecipIn,Conditions,Clouds,dailyrainin,SoftwareType,DateUTC
2013-04-10 00:02:00,37.0,25.0,-100.00,NNE,30,6.0,7.0,59,0.00,,,0.00,,2013-04-10 05:02:00,
2013-04-10 00:13:00,37.0,23.0,-100.00,NE,50,6.0,7.0,57,0.00,,,0.00,,2013-04-10 05:13:00,
2013-04-10 00:22:00,37.0,23.0,-100.00,NE,45,6.0,7.0,57,0.00,,,0.00,,2013-04-10 05:22:00,
2013-04-10 00:32:00,37.0,25.0,-100.00,NNE,30,5.0,7.0,60,0.00,,,0.00,,2013-04-10 05:32:00,
2013-04-10 00:42:00,36.0,25.0,-100.00,NNE,20,4.0,6.0,60,0.00,,,0.00,,2013-04-10 05:42:00,
2013-04-10 00:52:00,36.0,25.0,-100.00,NNE,30,4.0,6.0,64,0.00,,,0.00,,2013-04-10 05:52:00,
2013-04-10 01:03:00,36.0,25.0,-100.00,NE,40,5.0,7.0,62,0.00,,,0.00,,2013-04-10 06:03:00,
2013-04-10 01:12:00,36.0,25.0,-100.00,NNE,30,5.0,7.0,63,0.00,,,0.00,,2013-04-10 06:12:00,
2013-04-10 01:22:00,36.0,25.0,-100.00,NNE,30,7.0,10.0,62,0.00,,,0.00,,2013-04-10 06:22:00,
2013-04-10 01:32:00,36.0,25.0,-100.00,NNE,25,6.0,9.0,62,0.00,,,0.00,,2013-04-10 06:32:00,
2013-04-10 01:42:00,36.0,25.0,-100.00,NNE,30,6.0,8.0,63,0.00,,,0.00,,2013-04-10 06:42:00,
2013-04-10 01:52:00,36.0,23.0,-100.00,NE,50,6.0,8.0,61,0.00,,,0.00,,2013-04-10 06:52:00,
2013-04-10 02:02:00,36.0,23.0,-100.00,NE,50,9.0,12.0,60,0.00,,,0.00,,2013-04-10 07:02:00,
2013-04-10 02:12:00,36.0,25.0,-100.00,NE,50,9.0,14.0,62,0.00,,,0.00,,2013-04-10 07:12:00,
2013-04-10 02:22:00,35.0,23.0,-100.00,NE,50,11.0,18.0,61,0.00,,,0.00,,2013-04-10 07:22:00,
2013-04-10 02:32:00,35.0,23.0,-100.00,NE,55,14.0,21.0,62,0.00,,,0.00,,2013-04-10 07:32:00,
2013-04-10 02:42:00,35.0,23.0,-100.00,NE,45,15.0,21.0,62,0.00,,,0.00,,2013-04-10 07:42:00,
2013-04-10 02:52:00,35.0,23.0,-100.00,NE,35,13.0,22.0,62,0.00,,,0.00,,2013-04-10 07:52:00,
2013-04-10 03:02:00,35.0,23.0,-100.00,NE,40,9.0,16.0,61,0.00,,,0.00,,2013-04-10 08:02:00,
2013-04-10 03:12:00,35.0,23.0,-100.00,NNE,30,9.0,12.0,60,0.00,,,0.00,,2013-04-10 08:12:00,
2013-04-10 03:22:00,35.0,23.0,-100.00,NNE,30,6.0,10.0,62,0.00,,,0.00,,2013-04-10 08:22:00,
2013-04-10 03:32:00,35.0,23.0,-100.00,NNE,30,6.0,12.0,62,0.00,,,0.00,,2013-04-10 08:32:00,
2013-04-10 03:42:00,35.0,23.0,-100.00,North,0,6.0,11.0,61,0.00,,,0.00,,2013-04-10 08:42:00,
2013-04-10 03:52:00,35.0,23.0,-100.00,NNE,15,7.0,10.0,59,0.00,,,0.00,,2013-04-10 08:52:00,
2013-04-10 04:02:00,35.0,21.0,-100.00,NE,35,10.0,15.0,59,0.00,,,0.00,,2013-04-10 09:02:00,
2013-04-10 04:12:00,35.0,21.0,-100.00,NE,35,7.0,14.0,59,0.00,,,0.00,,2013-04-10 09:12:00,
2013-04-10 04:22:00,35.0,21.0,-100.00,NE,40,7.0,14.0,59,0.00,,,0.00,,2013-04-10 09:22:00,
2013-04-10 04:32:00,35.0,21.0,-100.00,NE,40,10.0,17.0,57,0.00,,,0.00,,2013-04-10 09:32:00,
2013-04-10 04:43:00,34.0,21.0,-100.00,NE,35,9.0,13.0,60,0.00,,,0.00,,2013-04-10 09:43:00,
2013-04-10 04:52:00,34.0,21.0,-100.00,NNE,30,9.0,13.0,59,0.00,,,0.00,,2013-04-10 09:52:00,
2013-04-10 05:03:00,34.0,21.0,-100.00,NE,35,11.0,14.0,60,0.00,,,0.00,,2013-04-10 10:03:00,
2013-04-10 05:12:00,34.0,21.0,-100.00,NE,35,12.0,17.0,59,0.00,,,0.00,,2013-04-10 10:12:00,
2013-04-10 05:23:00,34.0,21.0,-100.00,NE,40,10.0,14.0,58,0.00,,,0.00,,2013-04-10 10:23:00,
2013-04-10 05:33:00,34.0,21.0,-100.00,NE,35,9.0,13.0,60,0.00,,,0.00,,2013-04-10 10:33:00,
2013-04-10 05:42:00,34.0,21.0,-100.00,NE,50,12.0,16.0,57,0.00,,,0.00,,2013-04-10 10:42:00,
2013-04-10 05:52:00,34.0,21.0,-100.00,NE,50,12.0,17.0,59,0.00,,,0.00,,2013-04-10 10:52:00,
2013-04-10 06:02:00,33.0,21.0,-100.00,NE,45,13.0,19.0,58,0.00,,,0.00,,2013-04-10 11:02:00,
2013-04-10 06:12:00,33.0,21.0,-100.00,NE,50,12.0,24.0,60,0.00,,,0.00,,2013-04-10 11:12:00,
2013-04-10 06:22:00,33.0,21.0,-100.00,NE,50,12.0,18.0,60,0.00,,,0.00,,2013-04-10 11:22:00,
2013-04-10 06:32:00,33.0,19.0,-100.00,NE,45,17.0,23.0,58,0.00,,,0.00,,2013-04-10 11:32:00,
2013-04-10 06:42:00,33.0,21.0,-100.00,NE,55,11.0,21.0,61,0.00,,,0.00,,2013-04-10 11:42:00,
2013-04-10 06:52:00,33.0,19.0,-100.00,NE,45,15.0,24.0,57,0.00,,,0.00,,2013-04-10 11:52:00,
2013-04-10 07:03:00,33.0,19.0,-100.00,NE,50,13.0,20.0,58,0.00,,,0.00,,2013-04-10 12:03:00,
2013-04-10 07:12:00,33.0,19.0,-100.00,NE,50,11.0,20.0,58,0.00,,,0.00,,2013-04-10 12:12:00,
2013-04-10 07:22:00,33.0,19.0,-100.00,NE,55,11.0,18.0,57,0.00,,,0.00,,2013-04-10 12:22:00,
2013-04-10 07:33:00,33.0,19.0,-100.00,NE,40,10.0,17.0,58,0.00,,,0.00,,2013-04-10 12:33:00,
2013-04-10 07:42:00,33.0,19.0,-100.00,NE,50,10.0,16.0,58,0.00,,,0.00,,2013-04-10 12:42:00,
2013-04-10 07:52:00,33.0,19.0,-100.00,NE,55,10.0,16.0,58,0.00,,,0.00,,2013-04-10 12:52:00,
2013-04-10 08:02:00,33.0,19.0,-100.00,NE,55,10.0,16.0,58,0.00,,,0.00,,2013-04-10 13:02:00,
2013-04-10 08:12:00,33.0,21.0,-100.00,NE,50,9.0,13.0,59,0.00,,,0.00,,2013-04-10 13:12:00,
2013-04-10 08:23:00,33.0,19.0,-100.00,NE,50,8.0,16.0,58,0.00,,,0.00,,2013-04-10 13:23:00,
2013-04-10 08:32:00,33.0,19.0,-100.00,NE,45,9.0,16.0,57,0.00,,,0.00,,2013-04-10 13:32:00,
2013-04-10 08:42:00,33.0,19.0,-100.00,NE,55,9.0,14.0,58,0.00,,,0.00,,2013-04-10 13:42:00,
2013-04-10 08:52:00,33.0,19.0,-100.00,NE,45,11.0,16.0,57,0.00,,,0.00,,2013-04-10 13:52:00,
2013-04-10 09:02:00,33.0,19.0,-100.00,NE,45,9.0,16.0,57,0.00,,,0.00,,2013-04-10 14:02:00,
2013-04-10 09:12:00,34.0,21.0,-100.00,NE,50,9.0,15.0,58,0.00,,,0.00,,2013-04-10 14:12:00,
2013-04-10 09:22:00,33.0,19.0,-100.00,NE,45,12.0,17.0,57,0.00,,,0.00,,2013-04-10 14:22:00,
2013-04-10 09:32:00,33.0,19.0,-100.00,NE,45,11.0,17.0,56,0.00,,,0.00,,2013-04-10 14:32:00,
2013-04-10 09:42:00,34.0,19.0,-100.00,ENE,60,11.0,16.0,55,0.00,,,0.00,,2013-04-10 14:42:00,
2013-04-10 09:52:00,34.0,19.0,-100.00,NE,50,13.0,21.0,55,0.00,,,0.00,,2013-04-10 14:52:00,
2013-04-10 10:02:00,34.0,19.0,-100.00,NE,55,10.0,14.0,56,0.00,,,0.00,,2013-04-10 15:02:00,
2013-04-10 10:12:00,34.0,19.0,-100.00,NE,45,11.0,19.0,54,0.00,,,0.00,,2013-04-10 15:12:00,
2013-04-10 10:22:00,34.0,19.0,-100.00,NE,50,12.0,16.0,54,0.00,,,0.00,,2013-04-10 15:22:00,
2013-04-10 10:32:00,35.0,19.0,-100.00,NE,55,10.0,17.0,54,0.00,,,0.00,,2013-04-10 15:32:00,
2013-04-10 10:42:00,35.0,19.0,-100.00,ENE,65,10.0,19.0,55,0.00,,,0.00,,2013-04-10 15:42:00,
2013-04-10 10:52:00,35.0,19.0,-100.00,ENE,60,12.0,18.0,54,0.00,,,0.00,,2013-04-10 15:52:00,
2013-04-10 11:03:00,35.0,19.0,-100.00,NE,45,15.0,19.0,52,0.00,,,0.00,,2013-04-10 16:03:00,
2013-04-10 11:13:00,35.0,19.0,-100.00,NNE,30,14.0,22.0,53,0.00,,,0.00,,2013-04-10 16:13:00,
2013-04-10 11:23:00,35.0,19.0,-100.00,NE,55,12.0,16.0,52,0.00,,,0.00,,2013-04-10 16:23:00,
2013-04-10 11:33:00,35.0,19.0,-100.00,NE,40,12.0,19.0,52,0.00,,,0.00,,2013-04-10 16:33:00,
2013-04-10 11:43:00,35.0,19.0,-100.00,NE,45,12.0,19.0,53,0.00,,,0.00,,2013-04-10 16:43:00,
2013-04-10 11:52:00,35.0,19.0,-100.00,NE,50,11.0,20.0,52,0.00,,,0.00,,2013-04-10 16:52:00,
2013-04-10 12:02:00,36.0,19.0,-100.00,NE,40,9.0,20.0,53,0.00,,,0.00,,2013-04-10 17:02:00,
2013-04-10 12:12:00,35.0,19.0,-100.00,NE,55,13.0,19.0,51,0.00,,,0.00,,2013-04-10 17:12:00,
2013-04-10 12:22:00,36.0,19.0,-100.00,NE,50,12.0,16.0,51,0.00,,,0.00,,2013-04-10 17:22:00,
2013-04-10 12:33:00,36.0,19.0,-100.00,ENE,60,14.0,22.0,52,0.00,,,0.00,,2013-04-10 17:33:00,
2013-04-10 12:52:00,36.0,18.0,-100.00,NE,45,15.0,22.0,47,0.00,,,0.00,,2013-04-10 17:52:00,
2013-04-10 13:03:00,37.0,19.0,-100.00,ENE,60,11.0,21.0,49,0.00,,,0.00,,2013-04-10 18:03:00,
2013-04-10 13:12:00,37.0,19.0,-100.00,ENE,65,12.0,26.0,48,0.00,,,0.00,,2013-04-10 18:12:00,
2013-04-10 13:22:00,37.0,19.0,-100.00,NE,55,12.0,23.0,47,0.00,,,0.00,,2013-04-10 18:22:00,
2013-04-10 13:33:00,37.0,18.0,-100.00,NE,45,12.0,24.0,45,0.00,,,0.00,,2013-04-10 18:33:00,
2013-04-10 13:42:00,37.0,18.0,-100.00,NE,50,16.0,20.0,45,0.00,,,0.00,,2013-04-10 18:42:00,
2013-04-10 13:52:00,38.0,18.0,-100.00,NE,55,11.0,18.0,44,0.00,,,0.00,,2013-04-10 18:52:00,
2013-04-10 14:03:00,38.0,19.0,-100.00,NE,45,11.0,16.0,46,0.00,,,0.00,,2013-04-10 19:03:00,
2013-04-10 14:12:00,38.0,19.0,-100.00,NE,55,6.0,16.0,46,0.00,,,0.00,,2013-04-10 19:12:00,
2013-04-10 14:22:00,38.0,19.0,-100.00,NE,50,9.0,15.0,46,0.00,,,0.00,,2013-04-10 19:22:00,
2013-04-10 14:33:00,38.0,19.0,-100.00,ENE,65,7.0,12.0,47,0.00,,,0.00,,2013-04-10 19:33:00,
2013-04-10 14:42:00,39.0,21.0,-100.00,ENE,60,7.0,11.0,48,0.00,,,0.00,,2013-04-10 19:42:00,
2013-04-10 14:52:00,39.0,19.0,-100.00,ENE,60,10.0,15.0,46,0.00,,,0.00,,2013-04-10 19:52:00,
2013-04-10 15:02:00,39.0,19.0,-100.00,NE,50,9.0,18.0,46,0.00,,,0.00,,2013-04-10 20:02:00,
2013-04-10 15:12:00,39.0,19.0,-100.00,NE,55,11.0,17.0,44,0.00,,,0.00,,2013-04-10 20:12:00,
2013-04-10 15:23:00,39.0,21.0,-100.00,ENE,60,6.0,18.0,49,0.00,,,0.00,,2013-04-10 20:23:00,
2013-04-10 15:33:00,39.0,19.0,-100.00,ENE,60,9.0,18.0,45,0.00,,,0.00,,2013-04-10 20:33:00,
2013-04-10 15:42:00,40.0,21.0,-100.00,NE,45,10.0,17.0,47,0.00,,,0.00,,2013-04-10 20:42:00,
2013-04-10 15:52:00,40.0,23.0,-100.00,ENE,60,10.0,17.0,49,0.00,,,0.00,,2013-04-10 20:52:00,
2013-04-10 16:02:00,40.0,21.0,-100.00,NE,55,12.0,17.0,48,0.00,,,0.00,,2013-04-10 21:02:00,
2013-04-10 16:12:00,39.0,21.0,-100.00,ENE,65,11.0,20.0,49,0.00,,,0.00,,2013-04-10 21:12:00,
2013-04-10 16:22:00,39.0,23.0,-100.00,ENE,65,11.0,23.0,50,0.00,,,0.00,,2013-04-10 21:22:00,
2013-04-10 16:33:00,39.0,23.0,-100.00,ENE,65,10.0,18.0,50,0.00,,,0.00,,2013-04-10 21:33:00,
2013-04-10 16:42:00,39.0,23.0,-100.00,East,80,10.0,14.0,52,0.00,,,0.00,,2013-04-10 21:42:00,
2013-04-10 16:53:00,39.0,23.0,-100.00,ENE,65,8.0,14.0,52,0.00,,,0.00,,2013-04-10 21:53:00,
2013-04-10 17:03:00,39.0,21.0,-100.00,ENE,70,9.0,14.0,50,0.00,,,0.00,,2013-04-10 22:03:00,
2013-04-10 17:12:00,39.0,23.0,-100.00,ENE,65,7.0,14.0,52,0.00,,,0.00,,2013-04-10 22:12:00,
2013-04-10 17:22:00,39.0,23.0,-100.00,ENE,70,9.0,13.0,51,0.00,,,0.00,,2013-04-10 22:22:00,
2013-04-10 17:33:00,39.0,23.0,-100.00,ENE,60,10.0,16.0,51,0.00,,,0.00,,2013-04-10 22:33:00,
2013-04-10 17:42:00,39.0,25.0,-100.00,ENE,60,6.0,12.0,54,0.00,,,0.00,,2013-04-10 22:42:00,
2013-04-10 17:52:00,39.0,23.0,-100.00,ENE,65,6.0,11.0,53,0.00,,,0.00,,2013-04-10 22:52:00,
2013-04-10 18:02:00,39.0,23.0,-100.00,NE,45,7.0,12.0,50,0.00,,,0.00,,2013-04-10 23:02:00,
2013-04-10 18:12:00,39.0,21.0,-100.00,NE,40,12.0,17.0,49,0.00,,,0.00,,2013-04-10 23:12:00,
2013-04-10 18:22:00,39.0,23.0,-100.00,NE,35,7.0,16.0,51,0.00,,,0.00,,2013-04-10 23:22:00,
2013-04-10 18:32:00,38.0,21.0,-100.00,NE,40,10.0,13.0,50,0.00,,,0.00,,2013-04-10 23:32:00,
2013-04-10 18:42:00,38.0,23.0,-100.00,NE,50,10.0,14.0,52,0.00,,,0.00,,2013-04-10 23:42:00,
2013-04-10 18:52:00,38.0,21.0,-100.00,NE,50,8.0,12.0,51,0.00,,,0.00,,2013-04-10 23:52:00,
2013-04-10 19:02:00,38.0,21.0,-100.00,NE,55,9.0,12.0,51,0.00,,,0.00,,2013-04-11 00:02:00,
2013-04-10 19:12:00,38.0,23.0,-100.00,NE,55,7.0,12.0,53,0.00,,,0.00,,2013-04-11 00:12:00,
2013-04-10 19:22:00,38.0,23.0,-100.00,NE,55,7.0,12.0,54,0.00,,,0.00,,2013-04-11 00:22:00,
2013-04-10 19:32:00,38.0,21.0,-100.00,NE,50,9.0,13.0,51,0.00,,,0.00,,2013-04-11 00:32:00,
2013-04-10 19:42:00,38.0,23.0,-100.00,NE,50,8.0,12.0,53,0.00,,,0.00,,2013-04-11 00:42:00,
2013-04-10 19:52:00,38.0,23.0,-100.00,NE,55,7.0,12.0,53,0.00,,,0.00,,2013-04-11 00:52:00,
2013-04-10 20:02:00,38.0,21.0,-100.00,ENE,60,7.0,14.0,51,0.00,,,0.00,,2013-04-11 01:02:00,
2013-04-10 20:12:00,38.0,21.0,-100.00,ENE,65,8.0,12.0,51,0.00,,,0.00,,2013-04-11 01:12:00,
2013-04-10 20:22:00,37.0,21.0,-100.00,ENE,65,7.0,11.0,53,0.00,,,0.00,,2013-04-11 01:22:00,
2013-04-10 20:32:00,37.0,21.0,-100.00,ENE,60,6.0,13.0,51,0.00,,,0.00,,2013-04-11 01:32:00,
2013-04-10 20:42:00,37.0,21.0,-100.00,ENE,60,7.0,12.0,51,0.00,,,0.00,,2013-04-11 01:42:00,
2013-04-10 20:52:00,37.0,19.0,-100.00,ENE,60,7.0,12.0,48,0.00,,,0.00,,2013-04-11 01:52:00,
2013-04-10 21:03:00,37.0,19.0,-100.00,ENE,70,7.0,12.0,47,0.00,,,0.00,,2013-04-11 02:03:00,
2013-04-10 21:12:00,37.0,19.0,-100.00,ENE,60,7.0,12.0,49,0.00,,,0.00,,2013-04-11 02:12:00,
2013-04-10 21:22:00,37.0,19.0,-100.00,NE,50,8.0,12.0,48,0.00,,,0.00,,2013-04-11 02:22:00,
2013-04-10 21:32:00,37.0,19.0,-100.00,ENE,60,7.0,14.0,47,0.00,,,0.00,,2013-04-11 02:32:00,
2013-04-10 21:42:00,37.0,19.0,-100.00,ENE,60,7.0,14.0,47,0.00,,,0.00,,2013-04-11 02:42:00,
2013-04-10 21:52:00,37.0,18.0,-100.00,ENE,65,7.0,11.0,45,0.00,,,0.00,,2013-04-11 02:52:00,
2013-04-10 22:02:00,37.0,16.0,-100.00,ENE,65,7.0,10.0,42,0.00,,,0.00,,2013-04-11 03:02:00,
2013-04-10 22:12:00,37.0,14.0,-100.00,ENE,65,9.0,16.0,39,0.00,,,0.00,,2013-04-11 03:12:00,
2013-04-10 22:22:00,37.0,16.0,-100.00,ENE,65,8.0,14.0,41,0.00,,,0.00,,2013-04-11 03:22:00,
2013-04-10 22:33:00,37.0,18.0,-100.00,ENE,60,7.0,12.0,43,0.00,,,0.00,,2013-04-11 03:33:00,
2013-04-10 22:43:00,37.0,16.0,-100.00,ENE,70,7.0,12.0,43,0.00,,,0.00,,2013-04-11 03:43:00,
2013-04-10 22:53:00,36.0,16.0,-100.00,ENE,60,7.0,16.0,43,0.00,,,0.00,,2013-04-11 03:53:00,
2013-04-10 23:03:00,36.0,18.0,-100.00,ENE,70,6.0,13.0,46,0.00,,,0.00,,2013-04-11 04:03:00,
2013-04-10 23:12:00,36.0,16.0,-100.00,ENE,65,7.0,12.0,44,0.00,,,0.00,,2013-04-11 04:12:00,
2013-04-10 23:22:00,36.0,18.0,-100.00,ENE,70,8.0,13.0,45,0.00,,,0.00,,2013-04-11 04:22:00,
2013-04-10 23:33:00,36.0,19.0,-100.00,ENE,70,7.0,12.0,50,0.00,,,0.00,,2013-04-11 04:33:00,
2013-04-10 23:42:00,36.0,18.0,-100.00,ENE,60,7.0,10.0,48,0.00,,,0.00,,2013-04-11 04:42:00,
2013-04-10 23:52:00,36.0,19.0,-100.00,ENE,60,6.0,12.0,49,0.00,,,0.00,,2013-04-11 04:52:00,